Time,TemperatureF,DewpointF,PressureIn,WindDirection,WindDirectionDegrees,WindSpeedMPH,WindSpeedGustMPH,Humidity,HourlyPrecipIn,Conditions,Clouds,dailyrainin,SolarRadiationWatts/m^2,SoftwareType,DateUTC
2013-02-07 00:00:00,41.0,33.0,30.05,WSW,246,0.0,4.0,73,0.00,,,0.00,0,Wunderground v.1.15,2013-02-07 07:00:00,
2013-02-07 00:09:00,41.2,33.2,30.05,WSW,246,0.0,4.0,73,0.00,,,0.00,0,Wunderground v.1.15,2013-02-07 07:09:00,
2013-02-07 00:19:00,41.0,33.3,30.06,WSW,246,0.0,4.0,74,0.00,,,0.00,0,Wunderground v.1.15,2013-02-07 07:19:00,
2013-02-07 00:29:00,40.7,33.1,30.06,WSW,246,0.0,4.0,74,0.00,,,0.00,0,Wunderground v.1.15,2013-02-07 07:29:00,
2013-02-07 00:39:00,40.7,33.4,30.06,SW,233,0.0,4.0,75,0.00,,,0.00,0,Wunderground v.1.15,2013-02-07 07:39:00,
2013-02-07 00:49:00,41.3,33.6,30.06,SW,233,0.0,4.0,74,0.00,,,0.00,0,Wunderground v.1.15,2013-02-07 07:49:00,
2013-02-07 00:59:00,41.1,33.4,30.06,SW,233,0.0,4.0,74,0.00,,,0.00,0,Wunderground v.1.15,2013-02-07 07:59:00,
2013-02-07 01:09:00,40.7,33.1,30.07,SW,233,0.0,4.0,74,0.00,,,0.00,0,Wunderground v.1.15,2013-02-07 08:09:00,
2013-02-07 01:19:00,40.3,33.0,30.07,SW,233,0.0,4.0,75,0.00,,,0.00,0,Wunderground v.1.15,2013-02-07 08:19:00,
2013-02-07 01:29:00,40.5,33.5,30.06,SW,233,0.0,4.0,76,0.00,,,0.00,0,Wunderground v.1.15,2013-02-07 08:29:00,
2013-02-07 01:39:00,39.6,32.7,30.06,SW,233,0.0,4.0,76,0.00,,,0.00,0,Wunderground v.1.15,2013-02-07 08:39:00,
2013-02-07 01:50:00,39.5,32.9,30.06,SW,233,0.0,4.0,77,0.00,,,0.00,0,Wunderground v.1.15,2013-02-07 08:50:00,
2013-02-07 01:59:00,39.4,32.8,30.06,SW,233,0.0,4.0,77,0.00,,,0.00,0,Wunderground v.1.15,2013-02-07 08:59:00,
2013-02-07 02:09:00,39.8,33.2,30.06,SW,233,0.0,4.0,77,0.00,,,0.00,0,Wunderground v.1.15,2013-02-07 09:09:00,
2013-02-07 02:19:00,39.9,32.6,30.06,SW,233,0.0,4.0,75,0.00,,,0.00,0,Wunderground v.1.15,2013-02-07 09:19:00,
2013-02-07 02:29:00,37.5,31.3,30.06,SSE,161,0.0,4.0,78,0.00,,,0.00,0,Wunderground v.1.15,2013-02-07 09:29:00,
2013-02-07 02:39:00,36.1,31.1,30.06,SSE,161,0.0,4.0,82,0.00,,,0.00,0,Wunderground v.1.15,2013-02-07 09:39:00,
2013-02-07 02:49:00,35.8,31.1,30.06,SSE,161,0.0,4.0,83,0.00,,,0.00,0,Wunderground v.1.15,2013-02-07 09:49:00,
2013-02-07 02:59:00,35.9,31.5,30.06,WSW,241,0.0,4.0,84,0.00,,,0.00,0,Wunderground v.1.15,2013-02-07 09:59:00,
2013-02-07 03:09:00,36.3,32.2,30.07,WSW,241,0.0,4.0,85,0.00,,,0.00,0,Wunderground v.1.15,2013-02-07 10:09:00,
2013-02-07 03:19:00,35.7,31.0,30.06,WSW,241,0.0,4.0,83,0.00,,,0.00,0,Wunderground v.1.15,2013-02-07 10:19:00,
2013-02-07 03:29:00,35.2,31.1,30.06,WSW,241,0.0,4.0,85,0.00,,,0.00,0,Wunderground v.1.15,2013-02-07 10:29:00,
2013-02-07 03:39:00,35.1,31.0,30.06,WSW,241,0.0,4.0,85,0.00,,,0.00,0,Wunderground v.1.15,2013-02-07 10:39:00,
2013-02-07 03:49:00,34.3,30.3,30.06,WSW,241,0.0,4.0,85,0.00,,,0.00,0,Wunderground v.1.15,2013-02-07 10:49:00,
2013-02-07 03:59:00,33.9,30.2,30.06,WSW,241,0.0,4.0,86,0.00,,,0.00,0,Wunderground v.1.15,2013-02-07 10:59:00,
2013-02-07 04:09:00,34.2,31.0,30.06,WSW,241,0.0,4.0,88,0.00,,,0.00,0,Wunderground v.1.15,2013-02-07 11:09:00,
2013-02-07 04:19:00,33.9,30.4,30.06,WSW,241,0.0,4.0,87,0.00,,,0.00,0,Wunderground v.1.15,2013-02-07 11:19:00,
2013-02-07 04:29:00,33.8,30.6,30.06,WSW,241,0.0,4.0,88,0.00,,,0.00,0,Wunderground v.1.15,2013-02-07 11:29:00,
2013-02-07 04:39:00,34.1,30.9,30.06,WSW,241,0.0,4.0,88,0.00,,,0.00,0,Wunderground v.1.15,2013-02-07 11:39:00,
2013-02-07 04:49:00,34.1,30.9,30.06,WSW,241,0.0,4.0,88,0.00,,,0.00,0,Wunderground v.1.15,2013-02-07 11:49:00,
2013-02-07 04:59:00,34.0,30.8,30.07,WSW,241,0.0,4.0,88,0.00,,,0.00,0,Wunderground v.1.15,2013-02-07 11:59:00,
2013-02-07 05:09:00,33.6,30.4,30.07,WSW,241,0.0,4.0,88,0.00,,,0.00,0,Wunderground v.1.15,2013-02-07 12:09:00,
2013-02-07 05:19:00,33.2,30.0,30.08,SE,139,0.0,4.0,88,0.00,,,0.00,0,Wunderground v.1.15,2013-02-07 12:19:00,
2013-02-07 05:29:00,31.7,28.6,30.08,SE,139,0.0,4.0,88,0.00,,,0.00,0,Wunderground v.1.15,2013-02-07 12:29:00,
2013-02-07 05:39:00,31.4,28.5,30.08,SSW,211,0.0,4.0,89,0.00,,,0.00,0,Wunderground v.1.15,2013-02-07 12:39:00,
2013-02-07 05:49:00,32.2,29.6,30.08,SW,225,0.0,4.0,90,0.00,,,0.00,0,Wunderground v.1.15,2013-02-07 12:49:00,
2013-02-07 05:59:00,32.5,29.6,30.08,SW,225,0.0,4.0,89,0.00,,,0.00,0,Wunderground v.1.15,2013-02-07 12:59:00,
2013-02-07 06:09:00,30.8,27.7,30.08,SW,225,0.0,0.0,88,0.00,,,0.00,0,Wunderground v.1.15,2013-02-07 13:09:00,
2013-02-07 06:19:00,31.0,28.4,30.09,SW,225,0.0,0.0,90,0.00,,,0.00,0,Wunderground v.1.15,2013-02-07 13:19:00,
2013-02-07 06:29:00,30.4,27.8,30.09,SW,225,0.0,0.0,90,0.00,,,0.00,0,Wunderground v.1.15,2013-02-07 13:29:00,
2013-02-07 06:39:00,30.1,27.5,30.10,SW,225,0.0,0.0,90,0.00,,,0.00,0,Wunderground v.1.15,2013-02-07 13:39:00,
2013-02-07 06:49:00,30.1,27.8,30.09,SW,225,0.0,0.0,91,0.00,,,0.00,0,Wunderground v.1.15,2013-02-07 13:49:00,
2013-02-07 06:59:00,29.8,27.5,30.10,SW,225,0.0,0.0,91,0.00,,,0.00,0,Wunderground v.1.15,2013-02-07 13:59:00,
2013-02-07 07:09:00,29.4,27.1,30.10,SW,225,0.0,0.0,91,0.00,,,0.00,5,Wunderground v.1.15,2013-02-07 14:09:00,
2013-02-07 07:19:00,29.3,27.0,30.10,SW,225,0.0,0.0,91,0.00,,,0.00,11,Wunderground v.1.15,2013-02-07 14:19:00,
2013-02-07 07:29:00,29.9,27.9,30.11,SW,225,0.0,0.0,92,0.00,,,0.00,23,Wunderground v.1.15,2013-02-07 14:29:00,
2013-02-07 07:39:00,31.1,29.0,30.10,SW,225,0.0,0.0,92,0.00,,,0.00,49,Wunderground v.1.15,2013-02-07 14:39:00,
2013-02-07 07:49:00,32.5,30.4,30.11,SW,225,0.0,0.0,92,0.00,,,0.00,83,Wunderground v.1.15,2013-02-07 14:49:00,
2013-02-07 07:59:00,34.3,31.9,30.11,SW,225,0.0,0.0,91,0.00,,,0.00,116,Wunderground v.1.15,2013-02-07 14:59:00,
2013-02-07 08:09:00,35.7,32.5,30.11,SW,225,0.0,0.0,88,0.00,,,0.00,155,Wunderground v.1.15,2013-02-07 15:09:00,
2013-02-07 08:19:00,37.1,33.6,30.12,SW,225,0.0,0.0,87,0.00,,,0.00,192,Wunderground v.1.15,2013-02-07 15:19:00,
2013-02-07 08:29:00,38.9,34.8,30.13,South,178,0.0,0.0,85,0.00,,,0.00,230,Wunderground v.1.15,2013-02-07 15:29:00,
2013-02-07 08:39:00,40.2,35.4,30.13,South,187,0.0,0.0,83,0.00,,,0.00,265,Wunderground v.1.15,2013-02-07 15:39:00,
2013-02-07 08:49:00,42.0,36.3,30.13,SSE,166,0.0,0.0,80,0.00,,,0.00,299,Wunderground v.1.15,2013-02-07 15:49:00,
2013-02-07 08:59:00,43.7,37.0,30.12,SSE,168,0.0,0.0,77,0.00,,,0.00,334,Wunderground v.1.15,2013-02-07 15:59:00,
2013-02-07 09:09:00,45.3,37.2,30.13,South,184,0.0,0.0,73,0.00,,,0.00,364,Wunderground v.1.15,2013-02-07 16:09:00,
2013-02-07 09:19:00,47.2,37.5,30.13,South,179,0.0,0.0,69,0.00,,,0.00,397,Wunderground v.1.15,2013-02-07 16:19:00,
2013-02-07 09:29:00,48.6,37.7,30.13,NNE,32,0.0,0.0,66,0.00,,,0.00,427,Wunderground v.1.15,2013-02-07 16:29:00,
2013-02-07 09:39:00,50.2,37.7,30.13,NNE,32,0.0,0.0,62,0.00,,,0.00,459,Wunderground v.1.15,2013-02-07 16:39:00,
2013-02-07 09:49:00,51.9,38.4,30.13,NNE,32,0.0,0.0,60,0.00,,,0.00,490,Wunderground v.1.15,2013-02-07 16:49:00,
2013-02-07 09:59:00,52.9,37.6,30.12,NE,46,0.0,0.0,56,0.00,,,0.00,515,Wunderground v.1.15,2013-02-07 16:59:00,
2013-02-07 10:10:00,54.5,38.2,30.13,NE,51,0.0,0.0,54,0.00,,,0.00,543,Wunderground v.1.15,2013-02-07 17:10:00,
2013-02-07 10:20:00,55.1,37.8,30.13,ENE,61,0.0,0.0,52,0.00,,,0.00,566,Wunderground v.1.15,2013-02-07 17:20:00,
2013-02-07 10:30:00,55.9,35.9,30.13,NNE,28,1.0,5.0,47,0.00,,,0.00,592,Wunderground v.1.15,2013-02-07 17:30:00,
2013-02-07 10:40:00,56.2,32.8,30.12,North,355,2.0,5.0,41,0.00,,,0.00,610,Wunderground v.1.15,2013-02-07 17:40:00,
2013-02-07 10:50:00,56.8,32.1,30.12,SSW,208,0.0,0.0,39,0.00,,,0.00,633,Wunderground v.1.15,2013-02-07 17:50:00,
2013-02-07 12:20:00,59.8,32.1,30.09,ESE,123,0.0,0.0,35,0.00,,,0.00,733,Wunderground v.1.15,2013-02-07 19:20:00,
2013-02-07 12:30:00,60.0,32.2,30.09,SE,135,1.0,1.0,35,0.00,,,0.00,735,Wunderground v.1.15,2013-02-07 19:30:00,
2013-02-07 12:40:00,60.8,33.0,30.08,ESE,105,0.0,3.0,35,0.00,,,0.00,733,Wunderground v.1.15,2013-02-07 19:40:00,
2013-02-07 12:50:00,61.1,31.8,30.08,SE,133,1.0,1.0,33,0.00,,,0.00,733,Wunderground v.1.15,2013-02-07 19:50:00,
2013-02-07 13:00:00,61.4,32.0,30.07,South,181,1.0,1.0,33,0.00,,,0.00,726,Wunderground v.1.15,2013-02-07 20:00:00,
2013-02-07 13:10:00,61.7,31.5,30.07,WSW,254,1.0,1.0,32,0.00,,,0.00,722,Wunderground v.1.15,2013-02-07 20:10:00,
2013-02-07 13:20:00,61.5,31.3,30.06,SSE,167,1.0,1.0,32,0.00,,,0.00,715,Wunderground v.1.15,2013-02-07 20:20:00,
2013-02-07 13:30:00,62.3,31.3,30.05,NNW,338,0.0,6.0,31,0.00,,,0.00,705,Wunderground v.1.15,2013-02-07 20:30:00,
2013-02-07 13:40:00,63.5,32.3,30.05,ESE,122,2.0,6.0,31,0.00,,,0.00,694,Wunderground v.1.15,2013-02-07 20:40:00,
2013-02-07 13:50:00,62.8,31.7,30.04,SE,146,1.0,1.0,31,0.00,,,0.00,684,Wunderground v.1.15,2013-02-07 20:50:00,
2013-02-07 14:00:00,63.4,30.6,30.04,SE,133,2.0,2.0,29,0.00,,,0.00,666,Wunderground v.1.15,2013-02-07 21:00:00,
2013-02-07 14:10:00,64.2,32.1,30.04,SSW,202,2.0,2.0,30,0.00,,,0.00,652,Wunderground v.1.15,2013-02-07 21:10:00,
2013-02-07 14:20:00,64.5,29.7,30.03,SSW,192,1.0,6.0,27,0.00,,,0.00,633,Wunderground v.1.15,2013-02-07 21:20:00,
2013-02-07 14:30:00,64.8,31.8,30.02,ESE,112,1.0,1.0,29,0.00,,,0.00,612,Wunderground v.1.15,2013-02-07 21:30:00,
2013-02-07 14:40:00,64.3,31.3,30.02,East,84,1.0,6.0,29,0.00,,,0.00,591,Wunderground v.1.15,2013-02-07 21:40:00,
2013-02-07 14:50:00,64.6,31.6,30.02,South,189,1.0,1.0,29,0.00,,,0.00,568,Wunderground v.1.15,2013-02-07 21:50:00,
2013-02-07 15:00:00,65.1,31.2,30.02,SE,128,1.0,6.0,28,0.00,,,0.00,545,Wunderground v.1.15,2013-02-07 22:00:00,
2013-02-07 15:10:00,64.9,31.0,30.02,SSE,156,2.0,2.0,28,0.00,,,0.00,520,Wunderground v.1.15,2013-02-07 22:10:00,
2013-02-07 15:20:00,64.9,30.1,30.02,SSW,213,1.0,2.0,27,0.00,,,0.00,496,Wunderground v.1.15,2013-02-07 22:20:00,
2013-02-07 15:30:00,65.3,28.5,30.01,SE,140,2.0,2.0,25,0.00,,,0.00,466,Wunderground v.1.15,2013-02-07 22:30:00,
2013-02-07 15:40:00,65.8,24.7,30.01,SSW,204,3.0,3.0,21,0.00,,,0.00,436,Wunderground v.1.15,2013-02-07 22:40:00,
2013-02-07 15:50:00,65.7,25.8,30.01,WSW,241,4.0,5.0,22,0.00,,,0.00,406,Wunderground v.1.15,2013-02-07 22:50:00,
2013-02-07 16:00:00,65.4,25.5,30.01,WSW,240,5.0,5.0,22,0.00,,,0.00,371,Wunderground v.1.15,2013-02-07 23:00:00,
2013-02-07 16:10:00,65.0,26.3,30.02,SSW,198,4.0,10.0,23,0.00,,,0.00,338,Wunderground v.1.15,2013-02-07 23:10:00,
2013-02-07 16:19:00,64.8,27.1,30.02,SSW,205,2.0,10.0,24,0.00,,,0.00,306,Wunderground v.1.15,2013-02-07 23:19:00,
2013-02-07 16:30:00,64.8,26.1,30.02,SW,216,3.0,3.0,23,0.00,,,0.00,271,Wunderground v.1.15,2013-02-07 23:30:00,
2013-02-07 16:39:00,64.3,25.7,30.01,South,173,2.0,2.0,23,0.00,,,0.00,227,Wunderground v.1.15,2013-02-07 23:39:00,
2013-02-07 16:49:00,64.0,26.4,30.01,South,180,1.0,10.0,24,0.00,,,0.00,186,Wunderground v.1.15,2013-02-07 23:49:00,
2013-02-07 16:59:00,63.8,27.3,30.01,South,178,1.0,1.0,25,0.00,,,0.00,142,Wunderground v.1.15,2013-02-07 23:59:00,
2013-02-07 17:09:00,63.6,26.1,30.01,SSE,165,1.0,1.0,24,0.00,,,0.00,102,Wunderground v.1.15,2013-02-08 00:09:00,
2013-02-07 17:19:00,63.1,26.7,30.01,SSW,193,0.0,0.0,25,0.00,,,0.00,67,Wunderground v.1.15,2013-02-08 00:19:00,
2013-02-07 17:29:00,62.5,27.1,30.01,SSE,160,0.0,0.0,26,0.00,,,0.00,40,Wunderground v.1.15,2013-02-08 00:29:00,
2013-02-07 17:40:00,61.8,26.5,30.01,South,181,0.0,0.0,26,0.00,,,0.00,19,Wunderground v.1.15,2013-02-08 00:40:00,
2013-02-07 17:50:00,60.8,25.7,30.01,South,181,0.0,0.0,26,0.00,,,0.00,12,Wunderground v.1.15,2013-02-08 00:50:00,
2013-02-07 17:59:00,59.5,26.3,30.01,South,181,0.0,0.0,28,0.00,,,0.00,5,Wunderground v.1.15,2013-02-08 00:59:00,
2013-02-07 18:09:00,58.7,26.5,30.00,South,181,0.0,10.0,29,0.00,,,0.00,0,Wunderground v.1.15,2013-02-08 01:09:00,
2013-02-07 18:20:00,57.0,25.8,30.01,South,181,0.0,10.0,30,0.00,,,0.00,0,Wunderground v.1.15,2013-02-08 01:20:00,
2013-02-07 18:30:00,54.6,26.8,30.01,WSW,243,0.0,10.0,34,0.00,,,0.00,0,Wunderground v.1.15,2013-02-08 01:30:00,
2013-02-07 18:39:00,53.6,27.3,30.01,WSW,243,0.0,10.0,36,0.00,,,0.00,0,Wunderground v.1.15,2013-02-08 01:39:00,
2013-02-07 18:49:00,51.7,27.5,30.01,WSW,243,0.0,10.0,39,0.00,,,0.00,0,Wunderground v.1.15,2013-02-08 01:49:00,
2013-02-07 19:00:00,49.8,28.2,30.02,West,266,0.0,10.0,43,0.00,,,0.00,0,Wunderground v.1.15,2013-02-08 02:00:00,
2013-02-07 19:10:00,49.1,27.5,30.02,West,266,0.0,0.0,43,0.00,,,0.00,0,Wunderground v.1.15,2013-02-08 02:10:00,
2013-02-07 19:19:00,48.8,26.7,30.02,West,266,0.0,0.0,42,0.00,,,0.00,0,Wunderground v.1.15,2013-02-08 02:19:00,
2013-02-07 19:29:00,49.0,26.3,30.02,West,266,0.0,0.0,41,0.00,,,0.00,0,Wunderground v.1.15,2013-02-08 02:29:00,
2013-02-07 19:39:00,48.9,26.2,30.03,South,171,0.0,0.0,41,0.00,,,0.00,0,Wunderground v.1.15,2013-02-08 02:39:00,
2013-02-07 19:50:00,49.7,25.7,30.03,SSW,211,0.0,0.0,39,0.00,,,0.00,0,Wunderground v.1.15,2013-02-08 02:50:00,
2013-02-07 19:59:00,48.4,25.8,30.03,SSW,211,0.0,0.0,41,0.00,,,0.00,0,Wunderground v.1.15,2013-02-08 02:59:00,
2013-02-07 20:09:00,47.9,25.9,30.03,SSW,211,0.0,1.0,42,0.00,,,0.00,0,Wunderground v.1.15,2013-02-08 03:09:00,
2013-02-07 20:19:00,45.7,26.1,30.03,SSW,211,0.0,1.0,46,0.00,,,0.00,0,Wunderground v.1.15,2013-02-08 03:19:00,
2013-02-07 20:30:00,47.9,27.0,30.03,SSW,211,0.0,1.0,44,0.00,,,0.00,0,Wunderground v.1.15,2013-02-08 03:30:00,
2013-02-07 20:39:00,47.2,26.4,30.03,SSW,211,0.0,1.0,44,0.00,,,0.00,0,Wunderground v.1.15,2013-02-08 03:39:00,
2013-02-07 20:49:00,48.0,26.5,30.03,SSW,211,0.0,1.0,43,0.00,,,0.00,0,Wunderground v.1.15,2013-02-08 03:49:00,
2013-02-07 20:59:00,47.4,26.6,30.03,SSW,211,0.0,1.0,44,0.00,,,0.00,0,Wunderground v.1.15,2013-02-08 03:59:00,
2013-02-07 21:09:00,45.1,26.6,30.03,SSW,211,0.0,0.0,48,0.00,,,0.00,0,Wunderground v.1.15,2013-02-08 04:09:00,
2013-02-07 21:19:00,45.8,27.2,30.03,SSW,211,0.0,0.0,48,0.00,,,0.00,0,Wunderground v.1.15,2013-02-08 04:19:00,
2013-02-07 21:29:00,46.5,26.8,30.03,SSW,211,0.0,0.0,46,0.00,,,0.00,0,Wunderground v.1.15,2013-02-08 04:29:00,
2013-02-07 21:40:00,45.5,27.9,30.03,SSW,211,0.0,0.0,50,0.00,,,0.00,0,Wunderground v.1.15,2013-02-08 04:40:00,
2013-02-07 21:49:00,44.7,28.1,30.03,SSW,211,0.0,0.0,52,0.00,,,0.00,0,Wunderground v.1.15,2013-02-08 04:49:00,
2013-02-07 22:00:00,44.8,28.7,30.03,SSW,211,0.0,0.0,53,0.00,,,0.00,0,Wunderground v.1.15,2013-02-08 05:00:00,
2013-02-07 22:09:00,43.3,28.6,30.03,SSW,211,0.0,0.0,56,0.00,,,0.00,0,Wunderground v.1.15,2013-02-08 05:09:00,
2013-02-07 22:20:00,42.2,28.0,30.02,SW,234,0.0,0.0,57,0.00,,,0.00,0,Wunderground v.1.15,2013-02-08 05:20:00,
2013-02-07 22:29:00,41.7,27.6,30.02,SW,234,0.0,0.0,57,0.00,,,0.00,0,Wunderground v.1.15,2013-02-08 05:29:00,
2013-02-07 22:39:00,40.5,27.3,30.02,SW,234,0.0,0.0,59,0.00,,,0.00,0,Wunderground v.1.15,2013-02-08 05:39:00,
2013-02-07 22:50:00,40.7,27.9,30.02,SW,234,0.0,0.0,60,0.00,,,0.00,0,Wunderground v.1.15,2013-02-08 05:50:00,
2013-02-07 23:00:00,39.2,27.3,30.02,SW,234,0.0,0.0,62,0.00,,,0.00,0,Wunderground v.1.15,2013-02-08 06:00:00,
2013-02-07 23:09:00,39.5,27.5,30.02,SW,234,0.0,0.0,62,0.00,,,0.00,0,Wunderground v.1.15,2013-02-08 06:09:00,
2013-02-07 23:20:00,39.8,27.8,30.02,SW,234,0.0,0.0,62,0.00,,,0.00,0,Wunderground v.1.15,2013-02-08 06:20:00,
2013-02-07 23:29:00,40.2,28.6,30.02,SW,234,0.0,0.0,63,0.00,,,0.00,0,Wunderground v.1.15,2013-02-08 06:29:00,
2013-02-07 23:40:00,41.2,28.8,30.02,SW,234,0.0,0.0,61,0.00,,,0.00,0,Wunderground v.1.15,2013-02-08 06:40:00,
2013-02-07 23:50:00,40.8,28.4,30.02,SW,234,0.0,0.0,61,0.00,,,0.00,0,Wunderground v.1.15,2013-02-08 06:50:00,